sensor_id;sensor_type;location;lat;lon;timestamp;pressure;altitude;pressure_sealevel;temperature;humidity
68366;BME280;55283;51.466;5.478;2023-03-04T00:00:14;102485.00;;;19.97;40.81
68366;BME280;55283;51.466;5.478;2023-03-04T00:02:39;102486.59;;;19.98;40.69
68366;BME280;55283;51.466;5.478;2023-03-04T00:05:05;102480.59;;;19.99;40.72
68366;BME280;55283;51.466;5.478;2023-03-04T00:07:31;102485.78;;;19.97;40.70
68366;BME280;55283;51.466;5.478;2023-03-04T00:09:59;102477.41;;;19.97;40.68
68366;BME280;55283;51.466;5.478;2023-03-04T00:12:29;102483.00;;;19.97;40.83
68366;BME280;55283;51.466;5.478;2023-03-04T00:14:54;102476.19;;;19.91;40.68
68366;BME280;55283;51.466;5.478;2023-03-04T00:17:20;102474.97;;;19.92;40.66
68366;BME280;55283;51.466;5.478;2023-03-04T00:19:45;102480.59;;;19.92;40.54
68366;BME280;55283;51.466;5.478;2023-03-04T00:22:11;102475.78;;;19.93;40.73
68366;BME280;55283;51.466;5.478;2023-03-04T00:24:36;102474.97;;;19.92;40.60
68366;BME280;55283;51.466;5.478;2023-03-04T00:27:04;102477.78;;;19.92;40.68
68366;BME280;55283;51.466;5.478;2023-03-04T00:29:30;102470.59;;;19.91;40.69
68366;BME280;55283;51.466;5.478;2023-03-04T00:31:55;102467.78;;;19.91;40.64
68366;BME280;55283;51.466;5.478;2023-03-04T00:34:20;102465.00;;;19.91;40.75
68366;BME280;55283;51.466;5.478;2023-03-04T00:36:49;102471.81;;;19.94;40.76
68366;BME280;55283;51.466;5.478;2023-03-04T00:39:14;102468.59;;;19.92;40.76
68366;BME280;55283;51.466;5.478;2023-03-04T00:41:40;102463.41;;;19.90;40.53
68366;BME280;55283;51.466;5.478;2023-03-04T00:44:06;102476.56;;;19.89;40.65
68366;BME280;55283;51.466;5.478;2023-03-04T00:46:32;102470.59;;;19.91;40.43
68366;BME280;55283;51.466;5.478;2023-03-04T00:48:57;102467.78;;;19.95;40.67
68366;BME280;55283;51.466;5.478;2023-03-04T00:51:23;102467.00;;;19.90;40.67
68366;BME280;55283;51.466;5.478;2023-03-04T00:53:48;102465.78;;;19.92;40.56
68366;BME280;55283;51.466;5.478;2023-03-04T00:56:16;102470.97;;;19.89;40.56
68366;BME280;55283;51.466;5.478;2023-03-04T00:58:42;102472.97;;;19.89;40.76
68366;BME280;55283;51.466;5.478;2023-03-04T01:01:07;102466.59;;;19.88;40.71
68366;BME280;55283;51.466;5.478;2023-03-04T01:03:33;102470.59;;;19.87;40.59
68366;BME280;55283;51.466;5.478;2023-03-04T01:06:03;102472.97;;;19.89;40.65
68366;BME280;55283;51.466;5.478;2023-03-04T01:08:29;102477.78;;;19.88;40.57
68366;BME280;55283;51.466;5.478;2023-03-04T01:10:54;102474.97;;;19.88;40.63
68366;BME280;55283;51.466;5.478;2023-03-04T01:13:20;102472.97;;;19.89;40.42
68366;BME280;55283;51.466;5.478;2023-03-04T01:15:45;102474.59;;;19.90;40.64
68366;BME280;55283;51.466;5.478;2023-03-04T01:18:10;102474.97;;;19.88;40.57
68366;BME280;55283;51.466;5.478;2023-03-04T01:20:36;102471.78;;;19.86;40.73
68366;BME280;55283;51.466;5.478;2023-03-04T01:23:01;102475.78;;;19.85;40.64
68366;BME280;55283;51.466;5.478;2023-03-04T01:25:27;102477.38;;;19.86;40.57
68366;BME280;55283;51.466;5.478;2023-03-04T01:27:52;102470.97;;;19.86;40.38
68366;BME280;55283;51.466;5.478;2023-03-04T01:30:18;102478.16;;;19.87;40.68
68366;BME280;55283;51.466;5.478;2023-03-04T01:32:43;102471.41;;;19.84;40.53
68366;BME280;55283;51.466;5.478;2023-03-04T01:35:09;102473.38;;;19.84;40.66
68366;BME280;55283;51.466;5.478;2023-03-04T01:37:35;102463.78;;;19.85;40.65
68366;BME280;55283;51.466;5.478;2023-03-04T01:40:03;102459.00;;;19.82;40.59
68366;BME280;55283;51.466;5.478;2023-03-04T01:42:33;102454.59;;;19.84;40.54
68366;BME280;55283;51.466;5.478;2023-03-04T01:44:59;102459.78;;;19.86;40.53
68366;BME280;55283;51.466;5.478;2023-03-04T01:47:31;102462.59;;;19.86;40.67
68366;BME280;55283;51.466;5.478;2023-03-04T01:50:03;102453.41;;;19.85;40.59
68366;BME280;55283;51.466;5.478;2023-03-04T01:52:29;102443.78;;;19.86;40.60
68366;BME280;55283;51.466;5.478;2023-03-04T01:54:54;102444.59;;;19.83;40.59
68366;BME280;55283;51.466;5.478;2023-03-04T01:57:25;102441.41;;;19.85;40.44
68366;BME280;55283;51.466;5.478;2023-03-04T02:00:27;102440.19;;;19.86;40.44
68366;BME280;55283;51.466;5.478;2023-03-04T02:02:59;102441.41;;;19.85;40.45
68366;BME280;55283;51.466;5.478;2023-03-04T02:05:25;102431.81;;;19.79;40.60
68366;BME280;55283;51.466;5.478;2023-03-04T02:07:52;102431.00;;;19.82;40.69
68366;BME280;55283;51.466;5.478;2023-03-04T02:10:19;102429.41;;;19.84;40.54
68366;BME280;55283;51.466;5.478;2023-03-04T02:12:45;102433.03;;;19.81;40.63
68366;BME280;55283;51.466;5.478;2023-03-04T02:15:11;102423.41;;;19.82;40.68
68366;BME280;55283;51.466;5.478;2023-03-04T02:17:36;102428.22;;;19.82;40.52
68366;BME280;55283;51.466;5.478;2023-03-04T02:22:39;102425.41;;;19.82;40.47
68366;BME280;55283;51.466;5.478;2023-03-04T02:25:19;102423.00;;;19.80;40.55
68366;BME280;55283;51.466;5.478;2023-03-04T02:27:46;102423.78;;;19.81;40.81
68366;BME280;55283;51.466;5.478;2023-03-04T02:30:17;102418.19;;;19.81;40.42
68366;BME280;55283;51.466;5.478;2023-03-04T02:32:44;102418.63;;;19.79;40.69
68366;BME280;55283;51.466;5.478;2023-03-04T02:35:15;102417.81;;;19.79;40.79
68366;BME280;55283;51.466;5.478;2023-03-04T02:37:42;102419.41;;;19.80;40.50
68366;BME280;55283;51.466;5.478;2023-03-04T02:40:22;102412.59;;;19.77;40.35
68366;BME280;55283;51.466;5.478;2023-03-04T02:42:50;102415.03;;;19.79;40.36
68366;BME280;55283;51.466;5.478;2023-03-04T02:45:50;102419.41;;;19.80;40.50
68366;BME280;55283;51.466;5.478;2023-03-04T02:48:18;102410.22;;;19.79;40.43
68366;BME280;55283;51.466;5.478;2023-03-04T02:50:50;102404.63;;;19.76;40.67
68366;BME280;55283;51.466;5.478;2023-03-04T02:53:16;102405.00;;;19.78;40.55
68366;BME280;55283;51.466;5.478;2023-03-04T02:55:45;102409.00;;;19.77;40.49
68366;BME280;55283;51.466;5.478;2023-03-04T02:58:11;102403.41;;;19.77;40.22
68366;BME280;55283;51.466;5.478;2023-03-04T03:00:37;102410.22;;;19.76;40.56
68366;BME280;55283;51.466;5.478;2023-03-04T03:03:03;102408.22;;;19.80;40.43
68366;BME280;55283;51.466;5.478;2023-03-04T03:05:33;102397.81;;;19.77;40.49
68366;BME280;55283;51.466;5.478;2023-03-04T03:07:59;102395.81;;;19.77;40.58
68366;BME280;55283;51.466;5.478;2023-03-04T03:10:24;102397.03;;;19.76;40.51
68366;BME280;55283;51.466;5.478;2023-03-04T03:12:53;102391.44;;;19.76;40.60
68366;BME280;55283;51.466;5.478;2023-03-04T03:15:19;102396.63;;;19.78;40.47
68366;BME280;55283;51.466;5.478;2023-03-04T03:17:44;102395.03;;;19.77;40.54
68366;BME280;55283;51.466;5.478;2023-03-04T03:20:11;102381.84;;;19.77;40.51
68366;BME280;55283;51.466;5.478;2023-03-04T03:22:39;102387.00;;;19.75;40.69
68366;BME280;55283;51.466;5.478;2023-03-04T03:25:06;102391.81;;;19.75;40.42
68366;BME280;55283;51.466;5.478;2023-03-04T03:27:31;102395.03;;;19.77;40.57
68366;BME280;55283;51.466;5.478;2023-03-04T03:29:57;102389.03;;;19.75;40.45
68366;BME280;55283;51.466;5.478;2023-03-04T03:32:22;102371.44;;;19.71;40.41
68366;BME280;55283;51.466;5.478;2023-03-04T03:34:48;102382.25;;;19.76;40.31
68366;BME280;55283;51.466;5.478;2023-03-04T03:37:14;102385.03;;;19.76;40.44
68366;BME280;55283;51.466;5.478;2023-03-04T03:39:39;102380.25;;;19.76;40.53
68366;BME280;55283;51.466;5.478;2023-03-04T03:42:05;102382.25;;;19.76;40.39
68366;BME280;55283;51.466;5.478;2023-03-04T03:44:30;102386.63;;;19.73;40.60
68366;BME280;55283;51.466;5.478;2023-03-04T03:46:56;102381.84;;;19.77;40.68
68366;BME280;55283;51.466;5.478;2023-03-04T03:49:21;102373.44;;;19.74;40.58
68366;BME280;55283;51.466;5.478;2023-03-04T03:51:46;102377.03;;;19.74;40.38
68366;BME280;55283;51.466;5.478;2023-03-04T03:54:12;102377.03;;;19.74;40.36
68366;BME280;55283;51.466;5.478;2023-03-04T03:56:37;102377.03;;;19.74;40.42
68366;BME280;55283;51.466;5.478;2023-03-04T03:59:03;102377.44;;;19.69;40.50
68366;BME280;55283;51.466;5.478;2023-03-04T04:01:31;102381.44;;;19.72;40.53
68366;BME280;55283;51.466;5.478;2023-03-04T04:03:58;102375.44;;;19.73;40.43
68366;BME280;55283;51.466;5.478;2023-03-04T04:06:23;102385.03;;;19.72;40.44
68366;BME280;55283;51.466;5.478;2023-03-04T04:08:49;102384.22;;;19.75;40.31
68366;BME280;55283;51.466;5.478;2023-03-04T04:11:18;102373.44;;;19.74;40.46
68366;BME280;55283;51.466;5.478;2023-03-04T04:13:43;102380.63;;;19.75;40.54
68366;BME280;55283;51.466;5.478;2023-03-04T04:16:11;102378.63;;;19.75;40.67
68366;BME280;55283;51.466;5.478;2023-03-04T04:18:40;102392.22;;;19.73;40.49
68366;BME280;55283;51.466;5.478;2023-03-04T04:21:05;102385.44;;;19.74;40.41
68366;BME280;55283;51.466;5.478;2023-03-04T04:23:33;102378.63;;;19.72;40.47
68366;BME280;55283;51.466;5.478;2023-03-04T04:25:59;102382.63;;;19.71;40.35
68366;BME280;55283;51.466;5.478;2023-03-04T04:28:24;102378.63;;;19.72;40.45
68366;BME280;55283;51.466;5.478;2023-03-04T04:30:50;102385.03;;;19.72;40.56
68366;BME280;55283;51.466;5.478;2023-03-04T04:33:15;102385.03;;;19.72;40.37
68366;BME280;55283;51.466;5.478;2023-03-04T04:35:41;102387.03;;;19.72;40.47
68366;BME280;55283;51.466;5.478;2023-03-04T04:38:07;102389.03;;;19.67;40.25
68366;BME280;55283;51.466;5.478;2023-03-04T04:40:33;102390.63;;;19.72;40.54
68366;BME280;55283;51.466;5.478;2023-03-04T04:42:58;102386.63;;;19.73;40.36
68366;BME280;55283;51.466;5.478;2023-03-04T04:45:24;102392.22;;;19.73;40.44
68366;BME280;55283;51.466;5.478;2023-03-04T04:47:53;102395.41;;;19.72;40.49
68366;BME280;55283;51.466;5.478;2023-03-04T04:50:22;102385.84;;;19.73;40.30
68366;BME280;55283;51.466;5.478;2023-03-04T04:52:48;102397.84;;;19.73;40.43
68366;BME280;55283;51.466;5.478;2023-03-04T04:55:13;102399.41;;;19.74;40.37
68366;BME280;55283;51.466;5.478;2023-03-04T04:57:38;102393.03;;;19.74;40.43
68366;BME280;55283;51.466;5.478;2023-03-04T05:00:05;102396.22;;;19.72;40.29
68366;BME280;55283;51.466;5.478;2023-03-04T05:02:31;102391.41;;;19.69;40.29
68366;BME280;55283;51.466;5.478;2023-03-04T05:05:03;102393.81;;;19.71;40.52
68366;BME280;55283;51.466;5.478;2023-03-04T05:07:29;102395.84;;;19.70;40.31
68366;BME280;55283;51.466;5.478;2023-03-04T05:09:54;102386.63;;;19.70;40.46
68366;BME280;55283;51.466;5.478;2023-03-04T05:12:19;102395.84;;;19.70;40.47
68366;BME280;55283;51.466;5.478;2023-03-04T05:14:45;102393.81;;;19.71;40.44
68366;BME280;55283;51.466;5.478;2023-03-04T05:17:10;102393.81;;;19.71;40.44
68366;BME280;55283;51.466;5.478;2023-03-04T05:19:38;102390.63;;;19.68;40.37
68366;BME280;55283;51.466;5.478;2023-03-04T05:22:05;102390.63;;;19.68;40.59
68366;BME280;55283;51.466;5.478;2023-03-04T05:24:33;102388.63;;;19.69;40.41
68366;BME280;55283;51.466;5.478;2023-03-04T05:27:00;102380.22;;;19.69;40.44
68366;BME280;55283;51.466;5.478;2023-03-04T05:29:25;102383.81;;;19.70;40.44
68366;BME280;55283;51.466;5.478;2023-03-04T05:31:51;102372.22;;;19.60;40.38
68366;BME280;55283;51.466;5.478;2023-03-04T05:34:18;102394.63;;;19.71;40.43
68366;BME280;55283;51.466;5.478;2023-03-04T05:36:44;102394.63;;;19.71;40.41
68366;BME280;55283;51.466;5.478;2023-03-04T05:39:10;102397.00;;;19.69;40.32
68366;BME280;55283;51.466;5.478;2023-03-04T05:41:35;102397.00;;;19.69;40.38
68366;BME280;55283;51.466;5.478;2023-03-04T05:44:00;102397.03;;;19.73;40.45
68366;BME280;55283;51.466;5.478;2023-03-04T05:46:26;102394.25;;;19.73;40.33
68366;BME280;55283;51.466;5.478;2023-03-04T05:48:52;102397.03;;;19.73;40.17
68366;BME280;55283;51.466;5.478;2023-03-04T05:51:18;102406.19;;;19.70;40.38
68366;BME280;55283;51.466;5.478;2023-03-04T05:53:47;102401.81;;;19.68;40.25
68366;BME280;55283;51.466;5.478;2023-03-04T05:56:15;102400.22;;;19.71;40.45
68366;BME280;55283;51.466;5.478;2023-03-04T05:58:41;102403.41;;;19.70;40.31
68366;BME280;55283;51.466;5.478;2023-03-04T06:01:07;102401.81;;;19.72;40.37
68366;BME280;55283;51.466;5.478;2023-03-04T06:03:35;102399.44;;;19.71;40.20
68366;BME280;55283;51.466;5.478;2023-03-04T06:06:01;102401.00;;;19.72;40.31
68366;BME280;55283;51.466;5.478;2023-03-04T06:08:29;102397.03;;;19.73;40.30
68366;BME280;55283;51.466;5.478;2023-03-04T06:10:55;102407.41;;;19.72;40.10
68366;BME280;55283;51.466;5.478;2023-03-04T06:13:21;102403.81;;;19.72;40.33
68366;BME280;55283;51.466;5.478;2023-03-04T06:15:55;102404.22;;;19.70;40.34
68366;BME280;55283;51.466;5.478;2023-03-04T06:18:22;102407.03;;;19.70;40.50
68366;BME280;55283;51.466;5.478;2023-03-04T06:20:48;102405.03;;;19.71;40.32
68366;BME280;55283;51.466;5.478;2023-03-04T06:23:13;102401.81;;;19.68;40.40
68366;BME280;55283;51.466;5.478;2023-03-04T06:25:38;102409.00;;;19.70;40.30
68366;BME280;55283;51.466;5.478;2023-03-04T06:28:04;102412.59;;;19.66;40.60
68366;BME280;55283;51.466;5.478;2023-03-04T06:30:29;102413.41;;;19.67;40.36
68366;BME280;55283;51.466;5.478;2023-03-04T06:32:55;102417.81;;;19.64;40.60
68366;BME280;55283;51.466;5.478;2023-03-04T06:35:23;102417.81;;;19.72;40.70
68366;BME280;55283;51.466;5.478;2023-03-04T06:37:49;102414.63;;;19.73;40.43
68366;BME280;55283;51.466;5.478;2023-03-04T06:40:14;102423.38;;;19.75;40.63
68366;BME280;55283;51.466;5.478;2023-03-04T06:42:41;102413.03;;;19.79;40.66
68366;BME280;55283;51.466;5.478;2023-03-04T06:45:07;102420.19;;;19.70;41.10
68366;BME280;55283;51.466;5.478;2023-03-04T06:47:36;102418.19;;;19.66;41.30
68366;BME280;55283;51.466;5.478;2023-03-04T06:50:03;102424.59;;;19.63;41.42
68366;BME280;55283;51.466;5.478;2023-03-04T06:52:31;102421.78;;;19.63;41.54
68366;BME280;55283;51.466;5.478;2023-03-04T06:54:57;102428.19;;;19.64;41.67
68366;BME280;55283;51.466;5.478;2023-03-04T06:57:22;102418.59;;;19.68;41.59
68366;BME280;55283;51.466;5.478;2023-03-04T06:59:50;102431.00;;;19.82;41.49
68366;BME280;55283;51.466;5.478;2023-03-04T07:02:15;102441.00;;;19.79;41.22
68366;BME280;55283;51.466;5.478;2023-03-04T07:04:41;102434.59;;;19.68;41.68
68366;BME280;55283;51.466;5.478;2023-03-04T07:07:06;102441.78;;;19.80;42.28
68366;BME280;55283;51.466;5.478;2023-03-04T07:09:31;102442.59;;;19.84;42.04
68366;BME280;55283;51.466;5.478;2023-03-04T07:11:57;102445.00;;;19.85;42.17
68366;BME280;55283;51.466;5.478;2023-03-04T07:14:22;102437.00;;;19.91;42.74
68366;BME280;55283;51.466;5.478;2023-03-04T07:16:48;102432.22;;;19.88;42.79
68366;BME280;55283;51.466;5.478;2023-03-04T07:19:13;102435.00;;;19.92;41.96
68366;BME280;55283;51.466;5.478;2023-03-04T07:21:41;102442.59;;;19.91;41.95
68366;BME280;55283;51.466;5.478;2023-03-04T07:24:09;102442.59;;;19.91;41.69
68366;BME280;55283;51.466;5.478;2023-03-04T07:26:34;102443.00;;;19.93;42.41
68366;BME280;55283;51.466;5.478;2023-03-04T07:29:03;102443.78;;;19.86;41.10
68366;BME280;55283;51.466;5.478;2023-03-04T07:31:33;102441.38;;;19.63;37.74
68366;BME280;55283;51.466;5.478;2023-03-04T07:34:08;102456.09;;;19.46;36.48
68366;BME280;55283;51.466;5.478;2023-03-04T07:36:37;102454.44;;;19.31;34.98
68366;BME280;55283;51.466;5.478;2023-03-04T07:39:03;102459.63;;;19.21;35.16
68366;BME280;55283;51.466;5.478;2023-03-04T07:41:29;102457.56;;;19.11;35.14
68366;BME280;55283;51.466;5.478;2023-03-04T07:43:56;102462.78;;;19.20;36.63
68366;BME280;55283;51.466;5.478;2023-03-04T07:46:21;102462.00;;;19.23;37.89
68366;BME280;55283;51.466;5.478;2023-03-04T07:48:50;102464.84;;;19.34;37.90
68366;BME280;55283;51.466;5.478;2023-03-04T07:51:31;102464.84;;;19.27;37.87
68366;BME280;55283;51.466;5.478;2023-03-04T07:53:58;102466.41;;;19.28;38.19
68366;BME280;55283;51.466;5.478;2023-03-04T07:56:29;102466.44;;;19.31;38.31
68366;BME280;55283;51.466;5.478;2023-03-04T07:58:54;102462.03;;;19.27;38.55
68366;BME280;55283;51.466;5.478;2023-03-04T08:01:28;102471.63;;;19.29;38.74
68366;BME280;55283;51.466;5.478;2023-03-04T08:03:54;102470.84;;;19.36;38.58
68366;BME280;55283;51.466;5.478;2023-03-04T08:06:21;102471.69;;;19.47;38.46
68366;BME280;55283;51.466;5.478;2023-03-04T08:08:47;102479.28;;;19.47;38.42
68366;BME280;55283;51.466;5.478;2023-03-04T08:11:18;102479.28;;;19.47;39.24
68366;BME280;55283;51.466;5.478;2023-03-04T08:13:44;102470.47;;;19.44;38.60
68366;BME280;55283;51.466;5.478;2023-03-04T08:16:12;102480.88;;;19.44;38.54
68366;BME280;55283;51.466;5.478;2023-03-04T08:18:41;102474.47;;;19.43;38.94
68366;BME280;55283;51.466;5.478;2023-03-04T08:21:08;102470.91;;;19.50;39.03
68366;BME280;55283;51.466;5.478;2023-03-04T08:23:34;102483.25;;;19.49;39.22
68366;BME280;55283;51.466;5.478;2023-03-04T08:26:05;102478.88;;;19.48;39.43
68366;BME280;55283;51.466;5.478;2023-03-04T08:28:30;102480.88;;;19.44;39.38
68366;BME280;55283;51.466;5.478;2023-03-04T08:30:55;102483.25;;;19.42;39.39
68366;BME280;55283;51.466;5.478;2023-03-04T08:33:21;102476.88;;;19.45;39.53
68366;BME280;55283;51.466;5.478;2023-03-04T08:35:46;102476.88;;;19.45;39.63
68366;BME280;55283;51.466;5.478;2023-03-04T08:38:12;102481.66;;;19.41;39.88
68366;BME280;55283;51.466;5.478;2023-03-04T08:40:37;102485.66;;;19.43;39.36
68366;BME280;55283;51.466;5.478;2023-03-04T08:43:02;102477.66;;;19.49;39.51
68366;BME280;55283;51.466;5.478;2023-03-04T08:45:28;102486.03;;;19.42;39.61
68366;BME280;55283;51.466;5.478;2023-03-04T08:47:53;102479.66;;;19.45;39.51
68366;BME280;55283;51.466;5.478;2023-03-04T08:50:21;102478.44;;;19.42;39.73
68366;BME280;55283;51.466;5.478;2023-03-04T08:52:49;102464.03;;;19.33;39.53
68366;BME280;55283;51.466;5.478;2023-03-04T08:55:20;102485.28;;;19.52;39.50
68366;BME280;55283;51.466;5.478;2023-03-04T08:57:47;102481.69;;;19.55;39.50
68366;BME280;55283;51.466;5.478;2023-03-04T09:00:19;102477.28;;;19.51;39.82
68366;BME280;55283;51.466;5.478;2023-03-04T09:02:46;102482.47;;;19.49;39.88
68366;BME280;55283;51.466;5.478;2023-03-04T09:05:11;102474.88;;;19.49;39.61
68366;BME280;55283;51.466;5.478;2023-03-04T09:07:37;102473.28;;;19.52;40.01
68366;BME280;55283;51.466;5.478;2023-03-04T09:10:04;102472.53;;;19.58;39.72
68366;BME280;55283;51.466;5.478;2023-03-04T09:12:32;102478.94;;;19.59;39.86
68366;BME280;55283;51.466;5.478;2023-03-04T09:15:00;102476.56;;;19.68;39.74
68366;BME280;55283;51.466;5.478;2023-03-04T09:17:35;102471.38;;;19.70;40.25
68366;BME280;55283;51.466;5.478;2023-03-04T09:20:01;102460.97;;;19.71;40.07
68366;BME280;55283;51.466;5.478;2023-03-04T09:22:28;102464.97;;;19.73;40.20
68366;BME280;55283;51.466;5.478;2023-03-04T09:24:53;102457.38;;;19.74;40.38
68366;BME280;55283;51.466;5.478;2023-03-04T09:27:19;102456.19;;;19.82;40.13
68366;BME280;55283;51.466;5.478;2023-03-04T09:29:44;102460.19;;;19.84;39.97
68366;BME280;55283;51.466;5.478;2023-03-04T09:32:12;102459.00;;;19.85;40.15
68366;BME280;55283;51.466;5.478;2023-03-04T09:34:46;102454.19;;;19.82;40.12
68366;BME280;55283;51.466;5.478;2023-03-04T09:37:18;102454.59;;;19.84;39.94
68366;BME280;55283;51.466;5.478;2023-03-04T09:39:43;102450.97;;;19.84;40.10
68366;BME280;55283;51.466;5.478;2023-03-04T09:42:20;102461.38;;;19.87;40.16
68366;BME280;55283;51.466;5.478;2023-03-04T09:44:49;102452.97;;;19.83;40.06
68366;BME280;55283;51.466;5.478;2023-03-04T09:47:19;102448.19;;;19.84;40.11
68366;BME280;55283;51.466;5.478;2023-03-04T09:49:55;102447.00;;;19.85;40.12
68366;BME280;55283;51.466;5.478;2023-03-04T09:55:36;102446.22;;;19.88;40.34
68366;BME280;55283;51.466;5.478;2023-03-04T10:01:00;102446.59;;;19.94;40.12
68366;BME280;55283;51.466;5.478;2023-03-04T10:03:36;102444.19;;;19.92;40.02
68366;BME280;55283;51.466;5.478;2023-03-04T10:06:18;102440.59;;;19.92;40.13
68366;BME280;55283;51.466;5.478;2023-03-04T10:09:04;102449.00;;;19.88;40.19
68366;BME280;55283;51.466;5.478;2023-03-04T10:11:39;102445.78;;;19.86;40.16
68366;BME280;55283;51.466;5.478;2023-03-04T10:17:02;102449.78;;;19.92;39.97
68366;BME280;55283;51.466;5.478;2023-03-04T10:22:28;102447.81;;;19.82;40.17
68366;BME280;55283;51.466;5.478;2023-03-04T10:24:57;102445.00;;;19.85;40.26
68366;BME280;55283;51.466;5.478;2023-03-04T10:27:23;102453.38;;;19.89;40.20
68366;BME280;55283;51.466;5.478;2023-03-04T10:29:49;102451.81;;;19.88;40.14
68366;BME280;55283;51.466;5.478;2023-03-04T10:32:18;102441.41;;;19.88;40.13
68366;BME280;55283;51.466;5.478;2023-03-04T10:34:44;102442.59;;;19.91;40.22
68366;BME280;55283;51.466;5.478;2023-03-04T10:37:11;102442.59;;;19.91;39.82
68366;BME280;55283;51.466;5.478;2023-03-04T10:39:48;102441.41;;;19.92;40.14
68366;BME280;55283;51.466;5.478;2023-03-04T10:44:56;102426.22;;;19.93;40.07
68366;BME280;55283;51.466;5.478;2023-03-04T10:47:24;102425.81;;;19.98;40.17
68366;BME280;55283;51.466;5.478;2023-03-04T10:52:25;102423.41;;;20.00;40.24
68366;BME280;55283;51.466;5.478;2023-03-04T10:54:54;102429.41;;;19.95;40.28
68366;BME280;55283;51.466;5.478;2023-03-04T10:59:59;102425.41;;;20.00;40.00
68366;BME280;55283;51.466;5.478;2023-03-04T11:02:32;102428.22;;;19.96;39.92
68366;BME280;55283;51.466;5.478;2023-03-04T11:07:41;102427.81;;;19.94;40.33
68366;BME280;55283;51.466;5.478;2023-03-04T11:10:17;102421.00;;;19.92;39.92
68366;BME280;55283;51.466;5.478;2023-03-04T11:15:24;102421.00;;;19.92;39.93
68366;BME280;55283;51.466;5.478;2023-03-04T11:18:11;102414.22;;;19.89;40.29
68366;BME280;55283;51.466;5.478;2023-03-04T11:20:43;102414.19;;;19.93;40.06
68366;BME280;55283;51.466;5.478;2023-03-04T11:23:23;102409.81;;;19.88;39.97
68366;BME280;55283;51.466;5.478;2023-03-04T11:25:59;102408.63;;;19.85;40.58
68366;BME280;55283;51.466;5.478;2023-03-04T11:31:27;102405.81;;;19.85;40.78
68366;BME280;55283;51.466;5.478;2023-03-04T11:37:04;102403.00;;;19.89;40.52
68366;BME280;55283;51.466;5.478;2023-03-04T11:42:17;102404.22;;;19.88;41.38
68366;BME280;55283;51.466;5.478;2023-03-04T11:44:48;102401.81;;;19.94;41.80
68366;BME280;55283;51.466;5.478;2023-03-04T11:47:35;102393.41;;;19.97;42.42
68366;BME280;55283;51.466;5.478;2023-03-04T11:55:24;102376.63;;;19.97;41.61
68366;BME280;55283;51.466;5.478;2023-03-04T11:58:22;102380.22;;;19.98;41.50
68366;BME280;55283;51.466;5.478;2023-03-04T12:21:32;102337.47;;;19.94;41.33
68366;BME280;55283;51.466;5.478;2023-03-04T12:26:38;102332.63;;;19.98;41.13
68366;BME280;55283;51.466;5.478;2023-03-04T12:32:31;102325.03;;;19.98;41.16
68366;BME280;55283;51.466;5.478;2023-03-04T12:35:14;102318.66;;;20.05;41.10
68366;BME280;55283;51.466;5.478;2023-03-04T12:46:05;102310.66;;;19.96;41.17
68366;BME280;55283;51.466;5.478;2023-03-04T12:48:41;102304.25;;;19.99;40.76
68366;BME280;55283;51.466;5.478;2023-03-04T12:56:44;102293.06;;;20.03;40.95
68366;BME280;55283;51.466;5.478;2023-03-04T12:59:17;102289.03;;;20.04;41.04
68366;BME280;55283;51.466;5.478;2023-03-04T13:01:54;102294.25;;;20.02;41.37
68366;BME280;55283;51.466;5.478;2023-03-04T13:04:34;102290.22;;;20.06;41.25
68366;BME280;55283;51.466;5.478;2023-03-04T13:07:16;102279.81;;;20.18;41.06
68366;BME280;55283;51.466;5.478;2023-03-04T13:09:59;102277.38;;;20.23;40.98
68366;BME280;55283;51.466;5.478;2023-03-04T13:12:25;102273.81;;;20.23;41.09
68366;BME280;55283;51.466;5.478;2023-03-04T13:28:29;102270.22;;;20.11;40.84
68366;BME280;55283;51.466;5.478;2023-03-04T13:51:29;102265.84;;;20.07;40.92
68366;BME280;55283;51.466;5.478;2023-03-04T13:56:44;102258.22;;;20.07;41.04
68366;BME280;55283;51.466;5.478;2023-03-04T13:59:31;102265.06;;;20.03;41.04
68366;BME280;55283;51.466;5.478;2023-03-04T14:01:59;102254.25;;;20.05;41.32
68366;BME280;55283;51.466;5.478;2023-03-04T14:04:31;102252.63;;;20.07;41.09
68366;BME280;55283;51.466;5.478;2023-03-04T14:07:00;102251.84;;;20.07;41.12
68366;BME280;55283;51.466;5.478;2023-03-04T14:09:32;102254.63;;;20.07;41.24
68366;BME280;55283;51.466;5.478;2023-03-04T14:12:03;102252.28;;;20.02;40.94
68366;BME280;55283;51.466;5.478;2023-03-04T14:14:35;102247.84;;;20.01;40.95
68366;BME280;55283;51.466;5.478;2023-03-04T14:17:16;102249.88;;;20.00;41.30
68366;BME280;55283;51.466;5.478;2023-03-04T14:19:47;102248.25;;;20.03;41.28
68366;BME280;55283;51.466;5.478;2023-03-04T14:27:22;102240.66;;;20.10;40.98
68366;BME280;55283;51.466;5.478;2023-03-04T14:30:22;102229.41;;;20.18;40.74
68366;BME280;55283;51.466;5.478;2023-03-04T14:32:57;102225.81;;;20.17;40.96
68366;BME280;55283;51.466;5.478;2023-03-04T14:35:26;102226.63;;;20.14;40.97
68366;BME280;55283;51.466;5.478;2023-03-04T14:41:26;102229.44;;;20.10;40.85
68366;BME280;55283;51.466;5.478;2023-03-04T14:43:21;102222.63;;;20.11;41.03
68366;BME280;55283;51.466;5.478;2023-03-04T14:45:53;102217.84;;;20.08;41.20
68366;BME280;55283;51.466;5.478;2023-03-04T14:48:31;102213.84;;;20.09;41.08
68366;BME280;55283;51.466;5.478;2023-03-04T14:50:58;102215.47;;;20.10;40.93
68366;BME280;55283;51.466;5.478;2023-03-04T14:53:29;102211.47;;;20.08;41.28
68366;BME280;55283;51.466;5.478;2023-03-04T14:58:23;102207.50;;;20.02;41.31
68366;BME280;55283;51.466;5.478;2023-03-04T15:01:18;102203.50;;;19.96;41.41
68366;BME280;55283;51.466;5.478;2023-03-04T15:04:08;102206.66;;;20.01;41.55
68366;BME280;55283;51.466;5.478;2023-03-04T15:06:50;102192.66;;;20.01;41.31